sensor_id;sensor_type;location;lat;lon;timestamp;P1;durP1;ratioP1;P2;durP2;ratioP2
58302;SDS011;44109;52.398;7.024;2022-09-02T00:01:53;0.95;;;0.50;;
58302;SDS011;44109;52.398;7.024;2022-09-02T00:04:23;0.95;;;0.60;;
58302;SDS011;44109;52.398;7.024;2022-09-02T00:06:52;2.15;;;0.55;;
58302;SDS011;44109;52.398;7.024;2022-09-02T00:09:21;0.93;;;0.55;;
58302;SDS011;44109;52.398;7.024;2022-09-02T00:11:53;1.85;;;0.60;;
58302;SDS011;44109;52.398;7.024;2022-09-02T00:14:23;1.85;;;0.60;;
58302;SDS011;44109;52.398;7.024;2022-09-02T00:16:54;1.27;;;0.50;;
58302;SDS011;44109;52.398;7.024;2022-09-02T00:19:22;0.88;;;0.52;;
58302;SDS011;44109;52.398;7.024;2022-09-02T00:21:52;1.23;;;0.50;;
58302;SDS011;44109;52.398;7.024;2022-09-02T00:24:23;1.50;;;0.40;;
58302;SDS011;44109;52.398;7.024;2022-09-02T00:26:52;1.60;;;0.55;;
58302;SDS011;44109;52.398;7.024;2022-09-02T00:29:20;1.65;;;0.50;;
58302;SDS011;44109;52.398;7.024;2022-09-02T00:31:48;1.08;;;0.55;;
58302;SDS011;44109;52.398;7.024;2022-09-02T00:34:15;1.58;;;0.60;;
58302;SDS011;44109;52.398;7.024;2022-09-02T00:36:43;1.20;;;0.47;;
58302;SDS011;44109;52.398;7.024;2022-09-02T00:39:12;1.05;;;0.60;;
58302;SDS011;44109;52.398;7.024;2022-09-02T00:41:40;1.23;;;0.40;;
58302;SDS011;44109;52.398;7.024;2022-09-02T00:44:12;1.23;;;0.60;;
58302;SDS011;44109;52.398;7.024;2022-09-02T00:46:43;0.60;;;0.30;;
58302;SDS011;44109;52.398;7.024;2022-09-02T00:49:12;0.60;;;0.45;;
58302;SDS011;44109;52.398;7.024;2022-09-02T00:51:44;1.73;;;0.85;;
58302;SDS011;44109;52.398;7.024;2022-09-02T00:54:20;1.48;;;0.63;;
58302;SDS011;44109;52.398;7.024;2022-09-02T00:56:50;0.47;;;0.28;;
58302;SDS011;44109;52.398;7.024;2022-09-02T00:59:21;2.13;;;0.73;;
58302;SDS011;44109;52.398;7.024;2022-09-02T01:01:56;0.80;;;0.40;;
58302;SDS011;44109;52.398;7.024;2022-09-02T01:04:23;1.02;;;0.52;;
58302;SDS011;44109;52.398;7.024;2022-09-02T01:06:51;1.05;;;0.43;;
58302;SDS011;44109;52.398;7.024;2022-09-02T01:09:19;1.48;;;0.60;;
58302;SDS011;44109;52.398;7.024;2022-09-02T01:11:48;1.23;;;0.70;;
58302;SDS011;44109;52.398;7.024;2022-09-02T01:14:21;1.70;;;0.57;;
58302;SDS011;44109;52.398;7.024;2022-09-02T01:16:49;2.47;;;0.50;;
58302;SDS011;44109;52.398;7.024;2022-09-02T01:19:21;1.45;;;0.50;;
58302;SDS011;44109;52.398;7.024;2022-09-02T01:21:54;0.55;;;0.40;;
58302;SDS011;44109;52.398;7.024;2022-09-02T01:24:26;1.45;;;0.52;;
58302;SDS011;44109;52.398;7.024;2022-09-02T01:29:26;4.82;;;0.80;;
58302;SDS011;44109;52.398;7.024;2022-09-02T01:31:54;0.63;;;0.43;;
58302;SDS011;44109;52.398;7.024;2022-09-02T01:34:22;1.13;;;0.52;;
58302;SDS011;44109;52.398;7.024;2022-09-02T01:36:50;1.50;;;0.47;;
58302;SDS011;44109;52.398;7.024;2022-09-02T01:39:19;1.95;;;0.52;;
58302;SDS011;44109;52.398;7.024;2022-09-02T01:41:46;0.93;;;0.45;;
58302;SDS011;44109;52.398;7.024;2022-09-02T01:44:14;1.77;;;0.70;;
58302;SDS011;44109;52.398;7.024;2022-09-02T01:46:42;0.93;;;0.45;;
58302;SDS011;44109;52.398;7.024;2022-09-02T01:49:10;1.73;;;0.55;;
58302;SDS011;44109;52.398;7.024;2022-09-02T01:51:38;0.73;;;0.47;;
58302;SDS011;44109;52.398;7.024;2022-09-02T01:54:06;1.63;;;0.55;;
58302;SDS011;44109;52.398;7.024;2022-09-02T01:56:35;2.15;;;0.80;;
58302;SDS011;44109;52.398;7.024;2022-09-02T01:59:03;1.40;;;0.70;;
58302;SDS011;44109;52.398;7.024;2022-09-02T02:01:32;1.20;;;0.60;;
58302;SDS011;44109;52.398;7.024;2022-09-02T02:04:00;0.63;;;0.40;;
58302;SDS011;44109;52.398;7.024;2022-09-02T02:06:28;1.05;;;0.60;;
58302;SDS011;44109;52.398;7.024;2022-09-02T02:08:56;1.42;;;0.70;;
58302;SDS011;44109;52.398;7.024;2022-09-02T02:11:24;0.60;;;0.40;;
58302;SDS011;44109;52.398;7.024;2022-09-02T02:13:53;1.60;;;0.80;;
58302;SDS011;44109;52.398;7.024;2022-09-02T02:16:20;1.83;;;0.55;;
58302;SDS011;44109;52.398;7.024;2022-09-02T02:18:48;1.73;;;0.68;;
58302;SDS011;44109;52.398;7.024;2022-09-02T02:21:16;1.60;;;0.70;;
58302;SDS011;44109;52.398;7.024;2022-09-02T02:23:43;2.33;;;0.43;;
58302;SDS011;44109;52.398;7.024;2022-09-02T02:26:11;1.33;;;0.57;;
58302;SDS011;44109;52.398;7.024;2022-09-02T02:28:39;0.82;;;0.50;;
58302;SDS011;44109;52.398;7.024;2022-09-02T02:31:08;2.10;;;0.52;;
58302;SDS011;44109;52.398;7.024;2022-09-02T02:33:36;0.65;;;0.50;;
58302;SDS011;44109;52.398;7.024;2022-09-02T02:36:04;1.17;;;0.70;;
58302;SDS011;44109;52.398;7.024;2022-09-02T02:38:34;1.05;;;0.50;;
58302;SDS011;44109;52.398;7.024;2022-09-02T02:41:04;1.48;;;0.70;;
58302;SDS011;44109;52.398;7.024;2022-09-02T02:43:33;1.33;;;0.50;;
58302;SDS011;44109;52.398;7.024;2022-09-02T02:46:02;1.50;;;0.80;;
58302;SDS011;44109;52.398;7.024;2022-09-02T02:48:31;1.67;;;0.50;;
58302;SDS011;44109;52.398;7.024;2022-09-02T02:51:00;1.88;;;0.73;;
58302;SDS011;44109;52.398;7.024;2022-09-02T02:53:27;1.52;;;0.68;;
58302;SDS011;44109;52.398;7.024;2022-09-02T02:55:56;2.58;;;0.63;;
58302;SDS011;44109;52.398;7.024;2022-09-02T02:58:23;1.40;;;0.63;;
58302;SDS011;44109;52.398;7.024;2022-09-02T03:00:51;1.75;;;0.88;;
58302;SDS011;44109;52.398;7.024;2022-09-02T03:03:19;1.73;;;0.57;;
58302;SDS011;44109;52.398;7.024;2022-09-02T03:05:48;1.08;;;0.60;;
58302;SDS011;44109;52.398;7.024;2022-09-02T03:08:18;1.75;;;0.50;;
58302;SDS011;44109;52.398;7.024;2022-09-02T03:10:48;1.08;;;0.60;;
58302;SDS011;44109;52.398;7.024;2022-09-02T03:13:19;1.15;;;0.60;;
58302;SDS011;44109;52.398;7.024;2022-09-02T03:15:47;0.95;;;0.50;;
58302;SDS011;44109;52.398;7.024;2022-09-02T03:18:16;1.15;;;0.50;;
58302;SDS011;44109;52.398;7.024;2022-09-02T03:20:45;2.85;;;0.90;;
58302;SDS011;44109;52.398;7.024;2022-09-02T03:23:14;1.50;;;0.80;;
58302;SDS011;44109;52.398;7.024;2022-09-02T03:25:43;1.60;;;0.70;;
58302;SDS011;44109;52.398;7.024;2022-09-02T03:28:12;0.85;;;0.63;;
58302;SDS011;44109;52.398;7.024;2022-09-02T03:30:40;1.25;;;0.70;;
58302;SDS011;44109;52.398;7.024;2022-09-02T03:33:11;0.77;;;0.50;;
58302;SDS011;44109;52.398;7.024;2022-09-02T03:35:39;1.58;;;0.60;;
58302;SDS011;44109;52.398;7.024;2022-09-02T03:38:09;0.88;;;0.60;;
58302;SDS011;44109;52.398;7.024;2022-09-02T03:40:39;1.75;;;0.77;;
58302;SDS011;44109;52.398;7.024;2022-09-02T03:43:07;0.73;;;0.55;;
58302;SDS011;44109;52.398;7.024;2022-09-02T03:45:35;1.23;;;0.63;;
58302;SDS011;44109;52.398;7.024;2022-09-02T03:48:05;1.25;;;0.60;;
58302;SDS011;44109;52.398;7.024;2022-09-02T03:50:34;2.05;;;0.65;;
58302;SDS011;44109;52.398;7.024;2022-09-02T03:53:06;0.73;;;0.50;;
58302;SDS011;44109;52.398;7.024;2022-09-02T03:55:37;0.88;;;0.47;;
58302;SDS011;44109;52.398;7.024;2022-09-02T03:58:07;1.40;;;0.70;;
58302;SDS011;44109;52.398;7.024;2022-09-02T04:00:34;1.17;;;0.57;;
58302;SDS011;44109;52.398;7.024;2022-09-02T04:03:03;1.50;;;0.50;;
58302;SDS011;44109;52.398;7.024;2022-09-02T04:05:31;1.08;;;0.70;;
58302;SDS011;44109;52.398;7.024;2022-09-02T04:07:59;0.90;;;0.82;;
58302;SDS011;44109;52.398;7.024;2022-09-02T04:10:26;1.30;;;1.00;;
58302;SDS011;44109;52.398;7.024;2022-09-02T04:12:56;1.48;;;0.57;;
58302;SDS011;44109;52.398;7.024;2022-09-02T04:15:23;0.93;;;0.60;;
58302;SDS011;44109;52.398;7.024;2022-09-02T04:17:51;2.75;;;0.85;;
58302;SDS011;44109;52.398;7.024;2022-09-02T04:20:19;1.70;;;0.60;;
58302;SDS011;44109;52.398;7.024;2022-09-02T04:22:46;4.35;;;1.10;;
58302;SDS011;44109;52.398;7.024;2022-09-02T04:25:14;1.35;;;0.90;;
58302;SDS011;44109;52.398;7.024;2022-09-02T04:27:41;1.52;;;0.70;;
58302;SDS011;44109;52.398;7.024;2022-09-02T04:30:11;1.73;;;0.77;;
58302;SDS011;44109;52.398;7.024;2022-09-02T04:32:41;2.58;;;1.00;;
58302;SDS011;44109;52.398;7.024;2022-09-02T04:35:09;1.30;;;0.90;;
58302;SDS011;44109;52.398;7.024;2022-09-02T04:37:36;1.25;;;0.70;;
58302;SDS011;44109;52.398;7.024;2022-09-02T04:40:04;1.58;;;0.85;;
58302;SDS011;44109;52.398;7.024;2022-09-02T04:42:33;1.55;;;0.80;;
58302;SDS011;44109;52.398;7.024;2022-09-02T04:45:00;1.70;;;0.70;;
58302;SDS011;44109;52.398;7.024;2022-09-02T04:47:29;1.42;;;0.70;;
58302;SDS011;44109;52.398;7.024;2022-09-02T04:49:57;1.75;;;0.95;;
58302;SDS011;44109;52.398;7.024;2022-09-02T04:52:25;1.50;;;1.08;;
58302;SDS011;44109;52.398;7.024;2022-09-02T04:54:53;1.75;;;0.60;;
58302;SDS011;44109;52.398;7.024;2022-09-02T04:57:20;1.27;;;1.00;;
58302;SDS011;44109;52.398;7.024;2022-09-02T04:59:48;1.70;;;0.90;;
58302;SDS011;44109;52.398;7.024;2022-09-02T05:02:15;1.48;;;1.13;;
58302;SDS011;44109;52.398;7.024;2022-09-02T05:04:46;1.45;;;0.75;;
58302;SDS011;44109;52.398;7.024;2022-09-02T05:07:14;1.20;;;0.70;;
58302;SDS011;44109;52.398;7.024;2022-09-02T05:09:41;1.27;;;0.80;;
58302;SDS011;44109;52.398;7.024;2022-09-02T05:12:09;1.83;;;1.00;;
58302;SDS011;44109;52.398;7.024;2022-09-02T05:14:37;1.13;;;0.75;;
58302;SDS011;44109;52.398;7.024;2022-09-02T05:17:04;2.95;;;1.13;;
58302;SDS011;44109;52.398;7.024;2022-09-02T05:19:32;2.05;;;0.98;;
58302;SDS011;44109;52.398;7.024;2022-09-02T05:22:01;1.25;;;0.82;;
58302;SDS011;44109;52.398;7.024;2022-09-02T05:24:29;1.17;;;0.82;;
58302;SDS011;44109;52.398;7.024;2022-09-02T05:26:57;1.15;;;0.65;;
58302;SDS011;44109;52.398;7.024;2022-09-02T05:29:24;1.45;;;0.80;;
58302;SDS011;44109;52.398;7.024;2022-09-02T05:31:52;1.27;;;0.82;;
58302;SDS011;44109;52.398;7.024;2022-09-02T05:34:19;1.50;;;0.90;;
58302;SDS011;44109;52.398;7.024;2022-09-02T05:36:48;2.00;;;0.77;;
58302;SDS011;44109;52.398;7.024;2022-09-02T05:39:17;1.38;;;0.88;;
58302;SDS011;44109;52.398;7.024;2022-09-02T05:41:44;1.30;;;0.90;;
58302;SDS011;44109;52.398;7.024;2022-09-02T05:44:12;1.20;;;0.88;;
58302;SDS011;44109;52.398;7.024;2022-09-02T05:46:39;1.67;;;0.70;;
58302;SDS011;44109;52.398;7.024;2022-09-02T05:49:07;2.42;;;1.17;;
58302;SDS011;44109;52.398;7.024;2022-09-02T05:51:38;2.35;;;1.10;;
58302;SDS011;44109;52.398;7.024;2022-09-02T05:54:10;1.70;;;0.97;;
58302;SDS011;44109;52.398;7.024;2022-09-02T05:56:43;2.50;;;0.80;;
58302;SDS011;44109;52.398;7.024;2022-09-02T05:59:13;1.60;;;1.00;;
58302;SDS011;44109;52.398;7.024;2022-09-02T06:01:41;2.42;;;1.00;;
58302;SDS011;44109;52.398;7.024;2022-09-02T06:04:09;2.03;;;1.13;;
58302;SDS011;44109;52.398;7.024;2022-09-02T06:06:37;2.35;;;1.10;;
58302;SDS011;44109;52.398;7.024;2022-09-02T06:09:06;1.15;;;0.60;;
58302;SDS011;44109;52.398;7.024;2022-09-02T06:11:38;2.28;;;0.90;;
58302;SDS011;44109;52.398;7.024;2022-09-02T06:14:12;1.35;;;0.88;;
58302;SDS011;44109;52.398;7.024;2022-09-02T06:16:42;3.05;;;1.00;;
58302;SDS011;44109;52.398;7.024;2022-09-02T06:19:10;4.88;;;1.00;;
58302;SDS011;44109;52.398;7.024;2022-09-02T06:21:38;4.07;;;1.52;;
58302;SDS011;44109;52.398;7.024;2022-09-02T06:24:07;6.13;;;1.27;;
58302;SDS011;44109;52.398;7.024;2022-09-02T06:26:37;4.07;;;1.33;;
58302;SDS011;44109;52.398;7.024;2022-09-02T06:29:06;2.53;;;1.17;;
58302;SDS011;44109;52.398;7.024;2022-09-02T06:31:38;2.08;;;0.70;;
58302;SDS011;44109;52.398;7.024;2022-09-02T06:34:06;1.98;;;0.73;;
58302;SDS011;44109;52.398;7.024;2022-09-02T06:36:37;6.35;;;1.23;;
58302;SDS011;44109;52.398;7.024;2022-09-02T06:39:05;3.38;;;0.75;;
58302;SDS011;44109;52.398;7.024;2022-09-02T06:41:33;0.98;;;0.50;;
58302;SDS011;44109;52.398;7.024;2022-09-02T06:44:02;1.02;;;0.68;;
58302;SDS011;44109;52.398;7.024;2022-09-02T06:46:32;1.30;;;0.50;;
58302;SDS011;44109;52.398;7.024;2022-09-02T06:49:05;1.95;;;0.70;;
58302;SDS011;44109;52.398;7.024;2022-09-02T06:51:36;1.77;;;1.15;;
58302;SDS011;44109;52.398;7.024;2022-09-02T06:54:07;2.70;;;0.82;;
58302;SDS011;44109;52.398;7.024;2022-09-02T06:56:38;1.77;;;0.80;;
58302;SDS011;44109;52.398;7.024;2022-09-02T06:59:06;2.20;;;0.82;;
58302;SDS011;44109;52.398;7.024;2022-09-02T07:01:34;2.35;;;0.90;;
58302;SDS011;44109;52.398;7.024;2022-09-02T07:04:04;1.25;;;0.70;;
58302;SDS011;44109;52.398;7.024;2022-09-02T07:06:51;1.90;;;0.77;;
58302;SDS011;44109;52.398;7.024;2022-09-02T07:09:22;2.72;;;1.10;;
58302;SDS011;44109;52.398;7.024;2022-09-02T07:11:56;2.08;;;0.60;;
58302;SDS011;44109;52.398;7.024;2022-09-02T07:14:25;2.55;;;0.88;;
58302;SDS011;44109;52.398;7.024;2022-09-02T07:16:54;1.60;;;0.80;;
58302;SDS011;44109;52.398;7.024;2022-09-02T07:19:26;1.70;;;0.60;;
58302;SDS011;44109;52.398;7.024;2022-09-02T07:21:53;1.70;;;0.63;;
58302;SDS011;44109;52.398;7.024;2022-09-02T07:24:21;3.17;;;0.77;;
58302;SDS011;44109;52.398;7.024;2022-09-02T07:26:49;1.42;;;0.65;;
58302;SDS011;44109;52.398;7.024;2022-09-02T07:29:17;1.48;;;0.70;;
58302;SDS011;44109;52.398;7.024;2022-09-02T07:31:46;1.42;;;0.82;;
58302;SDS011;44109;52.398;7.024;2022-09-02T07:34:15;1.52;;;1.17;;
58302;SDS011;44109;52.398;7.024;2022-09-02T07:36:45;2.00;;;0.88;;
58302;SDS011;44109;52.398;7.024;2022-09-02T07:39:14;2.88;;;0.80;;
58302;SDS011;44109;52.398;7.024;2022-09-02T07:41:44;3.67;;;0.90;;
58302;SDS011;44109;52.398;7.024;2022-09-02T07:44:15;1.40;;;0.57;;
58302;SDS011;44109;52.398;7.024;2022-09-02T07:46:44;2.35;;;1.05;;
58302;SDS011;44109;52.398;7.024;2022-09-02T07:49:12;2.75;;;0.85;;
58302;SDS011;44109;52.398;7.024;2022-09-02T07:51:43;2.88;;;0.68;;
58302;SDS011;44109;52.398;7.024;2022-09-02T07:56:43;2.50;;;1.17;;
58302;SDS011;44109;52.398;7.024;2022-09-02T07:59:11;2.00;;;0.80;;
58302;SDS011;44109;52.398;7.024;2022-09-02T08:01:39;4.15;;;1.00;;
58302;SDS011;44109;52.398;7.024;2022-09-02T08:04:08;1.65;;;0.63;;
58302;SDS011;44109;52.398;7.024;2022-09-02T08:06:35;2.72;;;0.80;;
58302;SDS011;44109;52.398;7.024;2022-09-02T08:09:05;1.45;;;0.73;;
58302;SDS011;44109;52.398;7.024;2022-09-02T08:11:36;2.50;;;1.00;;
58302;SDS011;44109;52.398;7.024;2022-09-02T08:14:05;3.15;;;0.90;;
58302;SDS011;44109;52.398;7.024;2022-09-02T08:16:33;1.35;;;0.47;;
58302;SDS011;44109;52.398;7.024;2022-09-02T08:19:02;1.45;;;0.98;;
58302;SDS011;44109;52.398;7.024;2022-09-02T08:21:30;2.20;;;0.90;;
58302;SDS011;44109;52.398;7.024;2022-09-02T08:23:57;1.70;;;0.70;;
58302;SDS011;44109;52.398;7.024;2022-09-02T08:26:26;1.00;;;0.60;;
58302;SDS011;44109;52.398;7.024;2022-09-02T08:28:54;1.45;;;0.80;;
58302;SDS011;44109;52.398;7.024;2022-09-02T08:31:22;1.95;;;0.70;;
58302;SDS011;44109;52.398;7.024;2022-09-02T08:33:50;2.45;;;1.20;;
58302;SDS011;44109;52.398;7.024;2022-09-02T08:36:17;1.95;;;0.70;;
58302;SDS011;44109;52.398;7.024;2022-09-02T08:38:45;3.78;;;0.80;;
58302;SDS011;44109;52.398;7.024;2022-09-02T08:41:16;4.07;;;1.13;;
58302;SDS011;44109;52.398;7.024;2022-09-02T08:43:50;2.67;;;0.93;;
58302;SDS011;44109;52.398;7.024;2022-09-02T08:46:22;2.85;;;0.80;;
58302;SDS011;44109;52.398;7.024;2022-09-02T08:48:54;2.85;;;0.90;;
58302;SDS011;44109;52.398;7.024;2022-09-02T08:51:26;2.10;;;0.88;;
58302;SDS011;44109;52.398;7.024;2022-09-02T08:54:02;1.98;;;1.00;;
58302;SDS011;44109;52.398;7.024;2022-09-02T08:56:34;5.15;;;1.30;;
58302;SDS011;44109;52.398;7.024;2022-09-02T08:59:03;2.58;;;0.90;;
58302;SDS011;44109;52.398;7.024;2022-09-02T09:01:34;3.80;;;1.05;;
58302;SDS011;44109;52.398;7.024;2022-09-02T09:04:24;1.85;;;0.70;;
58302;SDS011;44109;52.398;7.024;2022-09-02T09:07:09;1.65;;;0.90;;
58302;SDS011;44109;52.398;7.024;2022-09-02T09:09:54;3.58;;;0.95;;
58302;SDS011;44109;52.398;7.024;2022-09-02T09:12:44;1.88;;;1.10;;
58302;SDS011;44109;52.398;7.024;2022-09-02T09:15:41;2.58;;;1.15;;
58302;SDS011;44109;52.398;7.024;2022-09-02T09:18:17;1.77;;;0.70;;
58302;SDS011;44109;52.398;7.024;2022-09-02T09:20:50;2.15;;;0.90;;
58302;SDS011;44109;52.398;7.024;2022-09-02T09:23:20;5.20;;;0.80;;
58302;SDS011;44109;52.398;7.024;2022-09-02T09:25:55;3.42;;;1.02;;
58302;SDS011;44109;52.398;7.024;2022-09-02T09:28:36;1.90;;;0.80;;
58302;SDS011;44109;52.398;7.024;2022-09-02T09:31:10;2.45;;;1.20;;
58302;SDS011;44109;52.398;7.024;2022-09-02T09:33:53;4.32;;;1.25;;
58302;SDS011;44109;52.398;7.024;2022-09-02T09:36:41;2.35;;;1.10;;
58302;SDS011;44109;52.398;7.024;2022-09-02T09:39:19;3.55;;;1.13;;
58302;SDS011;44109;52.398;7.024;2022-09-02T09:41:50;2.70;;;1.15;;
58302;SDS011;44109;52.398;7.024;2022-09-02T09:44:27;3.10;;;1.10;;
58302;SDS011;44109;52.398;7.024;2022-09-02T09:47:06;3.65;;;1.13;;
58302;SDS011;44109;52.398;7.024;2022-09-02T09:49:36;2.25;;;1.15;;
58302;SDS011;44109;52.398;7.024;2022-09-02T09:52:05;2.33;;;1.00;;
58302;SDS011;44109;52.398;7.024;2022-09-02T09:54:32;4.63;;;1.20;;
58302;SDS011;44109;52.398;7.024;2022-09-02T09:57:13;3.15;;;1.20;;
58302;SDS011;44109;52.398;7.024;2022-09-02T09:59:46;3.17;;;1.20;;
58302;SDS011;44109;52.398;7.024;2022-09-02T10:02:22;2.45;;;0.60;;
58302;SDS011;44109;52.398;7.024;2022-09-02T10:04:53;2.53;;;1.05;;
58302;SDS011;44109;52.398;7.024;2022-09-02T10:07:37;1.75;;;0.93;;
58302;SDS011;44109;52.398;7.024;2022-09-02T10:10:08;2.53;;;0.80;;
58302;SDS011;44109;52.398;7.024;2022-09-02T10:12:43;1.80;;;0.93;;
58302;SDS011;44109;52.398;7.024;2022-09-02T10:15:13;1.67;;;0.88;;
58302;SDS011;44109;52.398;7.024;2022-09-02T10:17:52;1.55;;;1.13;;
58302;SDS011;44109;52.398;7.024;2022-09-02T10:20:33;3.08;;;1.10;;
58302;SDS011;44109;52.398;7.024;2022-09-02T10:23:16;1.75;;;1.05;;
58302;SDS011;44109;52.398;7.024;2022-09-02T10:26:02;1.80;;;0.88;;
58302;SDS011;44109;52.398;7.024;2022-09-02T10:32:20;2.03;;;1.15;;
58302;SDS011;44109;52.398;7.024;2022-09-02T10:35:05;2.63;;;1.40;;
58302;SDS011;44109;52.398;7.024;2022-09-02T10:37:42;1.83;;;1.00;;
58302;SDS011;44109;52.398;7.024;2022-09-02T10:40:28;1.58;;;0.85;;
58302;SDS011;44109;52.398;7.024;2022-09-02T10:43:06;2.72;;;1.17;;
58302;SDS011;44109;52.398;7.024;2022-09-02T10:45:49;1.50;;;0.70;;
58302;SDS011;44109;52.398;7.024;2022-09-02T10:48:30;1.33;;;0.88;;
58302;SDS011;44109;52.398;7.024;2022-09-02T10:51:17;1.77;;;0.88;;
58302;SDS011;44109;52.398;7.024;2022-09-02T10:54:02;2.22;;;0.90;;
58302;SDS011;44109;52.398;7.024;2022-09-02T10:56:45;2.10;;;1.05;;
58302;SDS011;44109;52.398;7.024;2022-09-02T10:59:23;3.25;;;1.83;;
58302;SDS011;44109;52.398;7.024;2022-09-02T11:01:59;2.17;;;0.82;;
58302;SDS011;44109;52.398;7.024;2022-09-02T11:04:43;1.35;;;0.95;;
58302;SDS011;44109;52.398;7.024;2022-09-02T11:07:18;3.17;;;1.13;;
58302;SDS011;44109;52.398;7.024;2022-09-02T11:09:55;3.33;;;1.00;;
58302;SDS011;44109;52.398;7.024;2022-09-02T11:12:31;1.27;;;0.75;;
58302;SDS011;44109;52.398;7.024;2022-09-02T11:15:08;1.80;;;0.85;;
58302;SDS011;44109;52.398;7.024;2022-09-02T11:17:46;1.73;;;0.93;;
58302;SDS011;44109;52.398;7.024;2022-09-02T11:20:27;3.17;;;1.10;;
58302;SDS011;44109;52.398;7.024;2022-09-02T11:23:07;1.67;;;1.10;;
58302;SDS011;44109;52.398;7.024;2022-09-02T11:25:52;1.45;;;1.00;;
58302;SDS011;44109;52.398;7.024;2022-09-02T11:28:29;2.42;;;1.15;;
58302;SDS011;44109;52.398;7.024;2022-09-02T11:31:09;1.88;;;1.00;;
58302;SDS011;44109;52.398;7.024;2022-09-02T11:33:49;3.40;;;0.95;;
58302;SDS011;44109;52.398;7.024;2022-09-02T11:36:23;2.50;;;1.42;;
58302;SDS011;44109;52.398;7.024;2022-09-02T11:38:54;2.30;;;1.30;;
58302;SDS011;44109;52.398;7.024;2022-09-02T11:41:35;3.08;;;1.20;;
58302;SDS011;44109;52.398;7.024;2022-09-02T11:44:30;2.38;;;1.33;;
58302;SDS011;44109;52.398;7.024;2022-09-02T11:47:45;2.55;;;1.30;;
58302;SDS011;44109;52.398;7.024;2022-09-02T11:50:39;1.80;;;0.88;;
58302;SDS011;44109;52.398;7.024;2022-09-02T11:53:25;6.50;;;1.55;;
58302;SDS011;44109;52.398;7.024;2022-09-02T11:56:00;1.85;;;1.02;;
58302;SDS011;44109;52.398;7.024;2022-09-02T11:58:36;2.65;;;1.10;;
58302;SDS011;44109;52.398;7.024;2022-09-02T12:01:22;1.63;;;0.85;;
58302;SDS011;44109;52.398;7.024;2022-09-02T12:03:57;1.75;;;1.10;;
58302;SDS011;44109;52.398;7.024;2022-09-02T12:06:30;2.20;;;1.23;;
58302;SDS011;44109;52.398;7.024;2022-09-02T12:09:00;1.33;;;0.60;;
58302;SDS011;44109;52.398;7.024;2022-09-02T12:11:45;1.55;;;1.00;;
58302;SDS011;44109;52.398;7.024;2022-09-02T12:17:32;2.25;;;1.33;;
58302;SDS011;44109;52.398;7.024;2022-09-02T12:20:11;2.33;;;1.10;;
58302;SDS011;44109;52.398;7.024;2022-09-02T12:29:51;1.30;;;0.95;;
58302;SDS011;44109;52.398;7.024;2022-09-02T12:35:48;2.35;;;0.95;;
58302;SDS011;44109;52.398;7.024;2022-09-02T12:38:24;1.60;;;0.90;;
58302;SDS011;44109;52.398;7.024;2022-09-02T12:41:09;2.22;;;1.23;;
58302;SDS011;44109;52.398;7.024;2022-09-02T12:43:50;2.28;;;1.15;;
58302;SDS011;44109;52.398;7.024;2022-09-02T12:46:46;1.83;;;0.90;;
58302;SDS011;44109;52.398;7.024;2022-09-02T12:49:28;1.90;;;1.00;;
58302;SDS011;44109;52.398;7.024;2022-09-02T12:52:09;2.33;;;1.23;;
58302;SDS011;44109;52.398;7.024;2022-09-02T12:55:02;2.72;;;1.55;;
58302;SDS011;44109;52.398;7.024;2022-09-02T12:57:37;2.65;;;1.15;;
58302;SDS011;44109;52.398;7.024;2022-09-02T13:00:07;2.42;;;1.08;;
58302;SDS011;44109;52.398;7.024;2022-09-02T13:02:43;3.03;;;1.10;;
58302;SDS011;44109;52.398;7.024;2022-09-02T13:05:34;1.60;;;0.82;;
58302;SDS011;44109;52.398;7.024;2022-09-02T13:11:55;2.70;;;1.23;;
58302;SDS011;44109;52.398;7.024;2022-09-02T13:15:22;1.83;;;1.08;;
58302;SDS011;44109;52.398;7.024;2022-09-02T13:18:24;2.08;;;1.25;;
58302;SDS011;44109;52.398;7.024;2022-09-02T13:24:55;1.13;;;0.77;;
58302;SDS011;44109;52.398;7.024;2022-09-02T13:27:59;3.90;;;1.67;;
58302;SDS011;44109;52.398;7.024;2022-09-02T13:31:10;2.13;;;1.40;;
58302;SDS011;44109;52.398;7.024;2022-09-02T13:33:46;1.52;;;1.00;;
58302;SDS011;44109;52.398;7.024;2022-09-02T13:36:25;2.22;;;1.17;;
58302;SDS011;44109;52.398;7.024;2022-09-02T13:38:56;2.00;;;0.90;;
58302;SDS011;44109;52.398;7.024;2022-09-02T13:41:37;3.22;;;1.42;;
58302;SDS011;44109;52.398;7.024;2022-09-02T13:44:09;1.10;;;1.00;;
58302;SDS011;44109;52.398;7.024;2022-09-02T13:46:42;1.48;;;0.98;;
58302;SDS011;44109;52.398;7.024;2022-09-02T13:49:21;1.20;;;1.10;;
58302;SDS011;44109;52.398;7.024;2022-09-02T13:51:53;3.80;;;1.13;;
58302;SDS011;44109;52.398;7.024;2022-09-02T13:54:24;2.22;;;1.00;;
58302;SDS011;44109;52.398;7.024;2022-09-02T13:56:58;2.95;;;1.10;;
58302;SDS011;44109;52.398;7.024;2022-09-02T13:59:34;2.15;;;1.05;;
58302;SDS011;44109;52.398;7.024;2022-09-02T14:02:20;1.92;;;1.20;;
58302;SDS011;44109;52.398;7.024;2022-09-02T14:04:55;2.40;;;1.30;;
58302;SDS011;44109;52.398;7.024;2022-09-02T14:07:29;2.60;;;1.65;;
58302;SDS011;44109;52.398;7.024;2022-09-02T14:10:02;2.80;;;1.10;;
58302;SDS011;44109;52.398;7.024;2022-09-02T14:12:36;1.85;;;0.90;;
58302;SDS011;44109;52.398;7.024;2022-09-02T14:15:08;2.15;;;1.30;;
58302;SDS011;44109;52.398;7.024;2022-09-02T14:17:40;1.65;;;0.93;;
58302;SDS011;44109;52.398;7.024;2022-09-02T14:20:09;2.30;;;1.70;;
58302;SDS011;44109;52.398;7.024;2022-09-02T14:22:50;2.88;;;1.50;;
58302;SDS011;44109;52.398;7.024;2022-09-02T14:25:21;1.83;;;1.20;;
58302;SDS011;44109;52.398;7.024;2022-09-02T14:27:51;1.63;;;1.02;;
58302;SDS011;44109;52.398;7.024;2022-09-02T14:30:31;2.85;;;1.13;;
58302;SDS011;44109;52.398;7.024;2022-09-02T14:33:17;2.13;;;1.00;;
58302;SDS011;44109;52.398;7.024;2022-09-02T14:35:58;2.25;;;1.40;;
58302;SDS011;44109;52.398;7.024;2022-09-02T14:38:28;6.18;;;2.30;;
58302;SDS011;44109;52.398;7.024;2022-09-02T14:41:02;1.80;;;1.25;;
58302;SDS011;44109;52.398;7.024;2022-09-02T14:43:40;3.15;;;1.50;;
58302;SDS011;44109;52.398;7.024;2022-09-02T14:46:20;1.10;;;0.88;;
58302;SDS011;44109;52.398;7.024;2022-09-02T14:48:59;3.33;;;1.23;;
58302;SDS011;44109;52.398;7.024;2022-09-02T14:51:35;4.60;;;1.05;;
58302;SDS011;44109;52.398;7.024;2022-09-02T14:54:09;1.88;;;1.10;;
58302;SDS011;44109;52.398;7.024;2022-09-02T14:56:41;1.75;;;1.23;;
58302;SDS011;44109;52.398;7.024;2022-09-02T14:59:15;1.92;;;1.27;;
58302;SDS011;44109;52.398;7.024;2022-09-02T15:01:44;6.15;;;1.65;;
58302;SDS011;44109;52.398;7.024;2022-09-02T15:04:16;1.33;;;0.85;;
58302;SDS011;44109;52.398;7.024;2022-09-02T15:06:45;1.10;;;0.90;;
58302;SDS011;44109;52.398;7.024;2022-09-02T15:09:14;1.60;;;1.00;;
58302;SDS011;44109;52.398;7.024;2022-09-02T15:11:43;3.28;;;1.35;;
58302;SDS011;44109;52.398;7.024;2022-09-02T15:14:17;3.95;;;1.50;;
58302;SDS011;44109;52.398;7.024;2022-09-02T15:16:46;1.70;;;0.82;;
58302;SDS011;44109;52.398;7.024;2022-09-02T15:19:13;2.58;;;1.50;;
58302;SDS011;44109;52.398;7.024;2022-09-02T15:21:41;2.13;;;1.27;;
58302;SDS011;44109;52.398;7.024;2022-09-02T15:24:08;3.45;;;1.60;;
58302;SDS011;44109;52.398;7.024;2022-09-02T15:26:36;1.67;;;1.13;;
58302;SDS011;44109;52.398;7.024;2022-09-02T15:29:03;2.50;;;1.20;;
58302;SDS011;44109;52.398;7.024;2022-09-02T15:31:31;1.48;;;0.93;;
58302;SDS011;44109;52.398;7.024;2022-09-02T15:34:02;2.63;;;1.10;;
58302;SDS011;44109;52.398;7.024;2022-09-02T15:36:30;1.38;;;1.00;;
58302;SDS011;44109;52.398;7.024;2022-09-02T15:38:58;2.15;;;1.25;;
58302;SDS011;44109;52.398;7.024;2022-09-02T15:41:25;2.95;;;1.20;;
58302;SDS011;44109;52.398;7.024;2022-09-02T15:43:56;6.28;;;1.42;;
58302;SDS011;44109;52.398;7.024;2022-09-02T15:46:25;4.75;;;3.05;;
58302;SDS011;44109;52.398;7.024;2022-09-02T15:48:55;7.28;;;4.13;;
58302;SDS011;44109;52.398;7.024;2022-09-02T15:51:28;5.70;;;3.13;;